Time;durP1;ratioP1;P1;durP2;ratioP2;P2;SDS_P1;SDS_P2;PMS_P1;PMS_P2;Temp;Humidity;BMP_temperature;BMP_pressure;BME280_temperature;BME280_humidity;BME280_pressure;Samples;Min_cycle;Max_cycle;Signal;HPM_P1;HPM_P2
2021/01/25 00:00:53;;;;;;;;;;;;;;;1.92;67.47;98233.16;3126558;28;19925;-77
2021/01/25 00:02:28;;;;;;;;;;;;;;;1.97;67.43;98235.38;3131403;28;20291;-77
2021/01/25 00:03:59;;;;;;;;;;;;;;;1.92;67.04;98233.16;3131877;28;19936;-79
2021/01/25 00:05:31;;;;;;;;;;;;;;;1.96;66.91;98234.56;3129737;28;20014;-78
2021/01/25 00:07:03;;;;;;;;;;;;;;;1.97;66.74;98224.84;3126683;28;19925;-78
2021/01/25 00:08:34;;;;;;;;;;;;;;;2.01;66.58;98224.44;3128948;28;20384;-79
2021/01/25 00:10:05;;;;;;;;;;;;;;;1.95;67.41;98226.75;3127995;28;20010;-78
2021/01/25 00:11:36;;;;;;;;;;;;;;;1.92;67.53;98225.25;3128706;28;19975;-77
2021/01/25 00:13:07;;;;;;;;;;;;;;;1.88;66.97;98223.84;3131899;28;19925;-78
2021/01/25 00:14:38;;;;;;;;;;;;;;;1.81;67.04;98217.44;3125459;28;20379;-77
2021/01/25 00:16:09;;;;;;;;;;;;;;;1.85;66.66;98213.56;3132771;28;19940;-79
2021/01/25 00:17:41;;;;;;;;;;;;;;;1.77;66.72;98211.59;3128702;28;20365;-78
2021/01/25 00:19:12;;;;;;;;;;;;;;;1.77;67.03;98208.13;3132610;28;20006;-78
2021/01/25 00:20:42;;;;;;;;;;;;;;;1.80;66.63;98213.97;3131457;28;20493;-79
2021/01/25 00:22:14;;;;;;;;;;;;;;;1.77;66.59;98213.41;3130165;28;19933;-79
2021/01/25 00:23:45;;;;;;;;;;;;;;;1.81;66.86;98209.53;3131484;28;19925;-79
2021/01/25 00:25:16;;;;;;;;;;;;;;;1.82;66.35;98211.19;3129084;28;19928;-79
2021/01/25 00:26:47;;;;;;;;;;;;;;;1.87;66.52;98211.63;3133882;28;19925;-78
2021/01/25 00:28:18;;;;;;;;;;;;;;;1.89;66.24;98208.88;3134753;28;19925;-79
2021/01/25 00:29:49;;;;;;;;;;;;;;;1.91;66.14;98209.56;3133152;28;20014;-79
2021/01/25 00:31:20;;;;;;;;;;;;;;;1.93;65.69;98203.19;3132009;28;19931;-79
2021/01/25 00:32:51;;;;;;;;;;;;;;;1.94;65.20;98201.38;3132238;28;19925;-77
2021/01/25 00:34:22;;;;;;;;;;;;;;;1.94;65.66;98199.59;3131323;28;19925;-78
2021/01/25 00:35:53;;;;;;;;;;;;;;;1.94;65.18;98199.59;3136075;28;19924;-78
2021/01/25 00:37:25;;;;;;;;;;;;;;;1.92;65.34;98201.50;3125210;28;20015;-78
2021/01/25 00:38:56;;;;;;;;;;;;;;;1.95;65.59;98196.00;3132775;28;19925;-79
2021/01/25 00:40:27;;;;;;;;;;;;;;;1.93;65.61;98197.09;3129300;28;19932;-79
2021/01/25 00:41:58;;;;;;;;;;;;;;;1.97;65.15;98199.31;3132949;28;19925;-78
2021/01/25 00:43:29;;;;;;;;;;;;;;;1.98;65.01;98195.72;3133490;28;19979;-78
2021/01/25 00:45:00;;;;;;;;;;;;;;;1.97;65.19;98188.78;3134681;28;19925;-78
2021/01/25 00:46:31;;;;;;;;;;;;;;;2.02;65.33;98186.56;3131857;28;19928;-78
2021/01/25 00:48:02;;;;;;;;;;;;;;;2.01;65.10;98190.16;3133931;28;19963;-76
2021/01/25 00:49:32;;;;;;;;;;;;;;;1.86;65.31;98187.06;3130975;28;21349;-78
2021/01/25 00:51:04;;;;;;;;;;;;;;;1.80;65.29;98184.13;3131319;28;19925;-78
2021/01/25 00:52:35;;;;;;;;;;;;;;;1.74;65.62;98182.06;3131391;28;19925;-78
2021/01/25 00:54:07;;;;;;;;;;;;;;;1.68;65.76;98181.63;3134654;28;19967;-79
2021/01/25 00:55:38;;;;;;;;;;;;;;;1.68;66.18;98188.69;3128540;28;19988;-78
2021/01/25 00:57:09;;;;;;;;;;;;;;;1.67;66.80;98182.59;3132481;28;19967;-78
2021/01/25 00:58:40;;;;;;;;;;;;;;;1.68;66.74;98180.78;3131576;28;19924;-78
2021/01/25 01:00:11;;;;;;;;;;;;;;;1.71;66.67;98188.44;3134585;28;19925;-78
2021/01/25 01:01:42;;;;;;;;;;;;;;;1.73;66.59;98180.38;3133689;28;19963;-78
2021/01/25 01:03:14;;;;;;;;;;;;;;;1.74;66.31;98179.41;3131110;28;19948;-79
2021/01/25 01:04:45;;;;;;;;;;;;;;;1.71;66.49;98189.25;3130610;28;19925;-78
2021/01/25 01:06:16;;;;;;;;;;;;;;;1.73;66.28;98185.66;3127853;28;20026;-77
2021/01/25 01:07:48;;;;;;;;;;;;;;;1.61;66.21;98183.09;3132274;28;19925;-78
2021/01/25 01:09:18;;;;;;;;;;;;;;;1.54;66.58;98181.97;3134505;28;19939;-78
2021/01/25 01:10:49;;;;;;;;;;;;;;;1.58;66.78;98182.53;3130976;28;19924;-79
2021/01/25 01:12:20;;;;;;;;;;;;;;;1.62;66.47;98192.69;3134753;28;19978;-79
2021/01/25 01:13:51;;;;;;;;;;;;;;;1.68;66.23;98186.91;3129705;28;19929;-79
2021/01/25 01:15:22;;;;;;;;;;;;;;;1.71;65.92;98186.63;3136723;28;19971;-80
2021/01/25 01:16:53;;;;;;;;;;;;;;;1.71;66.01;98186.63;3134766;28;20406;-77
2021/01/25 01:18:23;;;;;;;;;;;;;;;1.64;65.95;98179.41;3130248;28;20030;-79
2021/01/25 01:19:54;;;;;;;;;;;;;;;1.64;66.26;98179.41;3130147;28;19925;-78
2021/01/25 01:21:25;;;;;;;;;;;;;;;1.70;66.06;98184.13;3131118;28;20026;-78
2021/01/25 01:22:56;;;;;;;;;;;;;;;1.65;66.13;98183.69;3132943;28;19924;-77
2021/01/25 01:24:27;;;;;;;;;;;;;;;1.68;66.45;98178.16;3131275;28;19995;-78
2021/01/25 01:25:58;;;;;;;;;;;;;;;1.75;66.01;98183.72;3133877;28;19940;-79
2021/01/25 01:27:29;;;;;;;;;;;;;;;1.77;65.94;98176.53;3131180;28;21200;-78
2021/01/25 01:29:00;;;;;;;;;;;;;;;1.80;66.05;98177.09;3131039;28;19933;-78
2021/01/25 01:30:31;;;;;;;;;;;;;;;1.84;65.80;98177.66;3134413;28;19983;-78
2021/01/25 01:32:01;;;;;;;;;;;;;;;1.88;65.84;98179.06;3132123;28;19928;-78
2021/01/25 01:33:32;;;;;;;;;;;;;;;1.92;65.62;98175.16;3136333;28;20311;-78
2021/01/25 01:35:04;;;;;;;;;;;;;;;1.93;65.43;98176.00;3124821;28;19960;-77
2021/01/25 01:36:35;;;;;;;;;;;;;;;1.86;65.42;98175.72;3134252;28;20454;-78
2021/01/25 01:38:07;;;;;;;;;;;;;;;1.89;65.44;98170.16;3127978;28;19967;-78
2021/01/25 01:39:38;;;;;;;;;;;;;;;1.89;65.15;98167.50;3134289;28;19971;-78
2021/01/25 01:41:09;;;;;;;;;;;;;;;1.90;64.81;98174.47;3134393;28;20003;-79
2021/01/25 01:42:41;;;;;;;;;;;;;;;1.96;65.44;98167.81;3141600;28;19929;-79
2021/01/25 01:44:12;;;;;;;;;;;;;;;1.85;65.31;98166.13;3142539;28;19929;-78
2021/01/25 01:45:43;;;;;;;;;;;;;;;1.82;65.19;98171.66;3140324;28;19994;-77
2021/01/25 01:47:15;;;;;;;;;;;;;;;1.89;65.28;98166.69;3140008;28;19975;-78
2021/01/25 01:48:46;;;;;;;;;;;;;;;1.91;65.29;98168.22;3143684;28;19925;-77
2021/01/25 01:50:17;;;;;;;;;;;;;;;1.89;65.79;98175.41;3139732;28;19921;-79
2021/01/25 01:51:49;;;;;;;;;;;;;;;1.87;65.83;98167.66;3139388;28;19925;-79
2021/01/25 01:53:21;;;;;;;;;;;;;;;1.80;66.53;98168.31;3131897;28;19924;-78
2021/01/25 01:54:53;;;;;;;;;;;;;;;1.89;65.68;98167.50;3132904;28;19974;-79
2021/01/25 01:56:24;;;;;;;;;;;;;;;1.90;65.33;98166.56;3131565;28;19936;-77
2021/01/25 01:57:56;;;;;;;;;;;;;;;1.80;65.35;98160.44;3133433;28;19924;-77
2021/01/25 01:59:27;;;;;;;;;;;;;;;1.82;65.29;98158.50;3128775;28;19963;-78
2021/01/25 02:00:58;;;;;;;;;;;;;;;1.85;65.04;98158.22;3130441;28;19941;-78
2021/01/25 02:02:29;;;;;;;;;;;;;;;1.88;64.89;98157.97;3132613;28;20030;-79
2021/01/25 02:04:00;;;;;;;;;;;;;;;1.93;65.19;98155.75;3133462;28;19964;-77
2021/01/25 02:05:31;;;;;;;;;;;;;;;1.96;65.20;98159.91;3131907;28;20591;-79
2021/01/25 02:07:03;;;;;;;;;;;;;;;1.92;64.89;98154.06;3124871;28;19956;-76
2021/01/25 02:08:37;;;;;;;;;;;;;;;1.95;64.46;98151.19;3129913;28;19924;-78
2021/01/25 02:10:09;;;;;;;;;;;;;;;1.99;64.95;98147.28;3131253;28;19964;-78
2021/01/25 02:11:40;;;;;;;;;;;;;;;1.98;64.63;98153.56;3128962;28;19960;-78
2021/01/25 02:13:11;;;;;;;;;;;;;;;1.96;64.72;98144.09;3134187;28;19928;-77
2021/01/25 02:14:42;;;;;;;;;;;;;;;1.98;64.44;98142.16;3128102;28;19983;-78
2021/01/25 02:16:13;;;;;;;;;;;;;;;2.01;64.36;98142.72;3133489;28;19924;-78
2021/01/25 02:17:47;;;;;;;;;;;;;;;2.02;64.39;98144.38;3132909;28;19959;-78
2021/01/25 02:19:24;;;;;;;;;;;;;;;2.05;64.21;98139.81;3130535;28;20314;-78
2021/01/25 02:20:55;;;;;;;;;;;;;;;2.04;64.04;98136.34;3135550;28;20293;-79
2021/01/25 02:22:52;;;;;;;;;;;;;;;2.02;63.99;98133.84;3131724;28;20446;-78
2021/01/25 02:24:29;;;;;;;;;;;;;;;2.01;64.06;98126.91;3128640;28;20639;-78
2021/01/25 02:26:05;;;;;;;;;;;;;;;2.02;64.28;98139.13;3140297;28;20413;-79
2021/01/25 02:27:37;;;;;;;;;;;;;;;2.02;64.13;98139.13;3135227;28;19925;-78
2021/01/25 02:29:08;;;;;;;;;;;;;;;2.00;64.28;98135.78;3136222;28;19925;-77
2021/01/25 02:30:40;;;;;;;;;;;;;;;2.00;64.34;98135.78;3131261;28;19983;-78
2021/01/25 02:32:11;;;;;;;;;;;;;;;2.02;64.30;98138.28;3133891;28;19933;-79
2021/01/25 02:33:44;;;;;;;;;;;;;;;2.02;64.09;98130.38;3131693;28;19952;-79
2021/01/25 02:35:16;;;;;;;;;;;;;;;2.00;63.96;98138.41;3134745;28;20006;-77
2021/01/25 02:36:47;;;;;;;;;;;;;;;1.97;64.12;98136.06;3138812;28;19967;-76
2021/01/25 02:38:18;;;;;;;;;;;;;;;1.97;64.13;98136.06;3140749;28;19956;-78
2021/01/25 02:39:50;;;;;;;;;;;;;;;1.97;64.11;98128.16;3140757;28;20543;-77
2021/01/25 02:41:23;;;;;;;;;;;;;;;1.98;63.97;98132.47;3137795;28;19928;-77
2021/01/25 02:42:57;;;;;;;;;;;;;;;1.92;64.20;98125.09;3145248;28;19925;-78
2021/01/25 02:44:34;;;;;;;;;;;;;;;1.92;64.29;98127.72;3140783;28;19950;-77
2021/01/25 02:46:07;;;;;;;;;;;;;;;1.92;64.06;98121.63;3146827;28;19940;-77
2021/01/25 02:47:38;;;;;;;;;;;;;;;1.92;64.17;98127.72;3140224;28;19940;-79
2021/01/25 02:49:09;;;;;;;;;;;;;;;1.96;64.12;98117.75;3138322;28;19952;-79
2021/01/25 02:50:40;;;;;;;;;;;;;;;1.96;64.06;98120.38;3139445;28;19924;-78
2021/01/25 02:52:11;;;;;;;;;;;;;;;1.96;64.25;98126.50;3143289;28;19933;-79
2021/01/25 02:53:42;;;;;;;;;;;;;;;1.93;64.37;98123.31;3147419;28;19928;-78
2021/01/25 02:55:15;;;;;;;;;;;;;;;1.92;64.37;98117.19;3139536;28;20343;-78
2021/01/25 02:56:48;;;;;;;;;;;;;;;1.91;64.37;98125.25;3142875;28;19925;-77
2021/01/25 02:58:21;;;;;;;;;;;;;;;1.93;64.64;98118.84;3142970;28;19925;-78
2021/01/25 02:59:53;;;;;;;;;;;;;;;1.93;64.63;98118.84;3144203;28;19909;-78
2021/01/25 03:01:26;;;;;;;;;;;;;;;1.93;64.61;98118.84;3139401;28;19976;-78
2021/01/25 03:03:01;;;;;;;;;;;;;;;1.92;64.51;98114.53;3132086;28;20026;-79
2021/01/25 03:04:33;;;;;;;;;;;;;;;1.86;64.25;98121.19;3133244;28;20456;-79
2021/01/25 03:06:05;;;;;;;;;;;;;;;1.65;64.79;98121.31;3128390;28;20069;-78
2021/01/25 03:07:36;;;;;;;;;;;;;;;1.62;64.85;98124.19;3132867;28;19955;-79
2021/01/25 03:09:07;;;;;;;;;;;;;;;1.61;65.08;98119.88;3133860;28;19979;-78
2021/01/25 03:10:38;;;;;;;;;;;;;;;1.57;65.01;98129.03;3128918;28;19987;-78
2021/01/25 03:12:09;;;;;;;;;;;;;;;1.61;65.10;98130.44;3134181;28;19968;-77
2021/01/25 03:13:40;;;;;;;;;;;;;;;1.67;65.06;98124.63;3127724;28;20314;-78
2021/01/25 03:15:14;;;;;;;;;;;;;;;1.72;64.85;98129.50;3134839;28;19941;-78
2021/01/25 03:16:45;;;;;;;;;;;;;;;1.77;64.56;98131.72;3132402;28;19929;-78
2021/01/25 03:18:16;;;;;;;;;;;;;;;1.80;64.58;98145.47;3131556;28;19924;-78
2021/01/25 03:19:47;;;;;;;;;;;;;;;1.81;64.53;98141.00;3128478;28;19960;-78
2021/01/25 03:21:18;;;;;;;;;;;;;;;1.80;64.35;98132.28;3130772;28;19956;-79
2021/01/25 03:22:49;;;;;;;;;;;;;;;1.77;64.76;98145.72;3132493;28;20439;-77
2021/01/25 03:24:20;;;;;;;;;;;;;;;1.81;65.39;98146.28;3133180;28;19935;-78
2021/01/25 03:25:51;;;;;;;;;;;;;;;1.83;65.43;98153.09;3131908;28;19931;-79
2021/01/25 03:27:22;;;;;;;;;;;;;;;1.87;65.25;98151.84;3130824;28;19928;-78
2021/01/25 03:28:53;;;;;;;;;;;;;;;1.86;65.47;98150.19;3129312;28;19968;-79
2021/01/25 03:30:26;;;;;;;;;;;;;;;1.85;65.91;98156.41;3133734;28;19983;-77
2021/01/25 03:31:57;;;;;;;;;;;;;;;1.87;65.44;98148.41;3130374;28;19928;-78
2021/01/25 03:33:28;;;;;;;;;;;;;;;1.89;65.71;98149.06;3133661;28;19932;-78
2021/01/25 03:34:59;;;;;;;;;;;;;;;1.89;65.69;98148.25;3127096;28;19978;-78
2021/01/25 03:36:30;;;;;;;;;;;;;;;1.86;65.62;98147.53;3132916;28;19932;-77
2021/01/25 03:38:01;;;;;;;;;;;;;;;1.91;65.76;98157.69;3130050;28;19956;-78
2021/01/25 03:39:32;;;;;;;;;;;;;;;1.94;65.90;98153.94;3132523;28;19928;-77
2021/01/25 03:41:03;;;;;;;;;;;;;;;1.98;66.30;98156.19;3132591;28;19956;-78
2021/01/25 03:42:34;;;;;;;;;;;;;;;1.90;66.16;98161.28;3128907;28;19924;-77
2021/01/25 03:44:05;;;;;;;;;;;;;;;1.81;66.60;98167.38;3132505;28;19925;-78
2021/01/25 03:45:37;;;;;;;;;;;;;;;1.77;66.65;98164.16;3129121;28;20444;-77
2021/01/25 03:47:08;;;;;;;;;;;;;;;1.69;67.24;98159.59;3131506;28;19961;-77
2021/01/25 03:48:39;;;;;;;;;;;;;;;1.62;67.46;98168.16;3133334;28;19932;-77
2021/01/25 03:50:10;;;;;;;;;;;;;;;1.55;68.02;98170.47;3129833;28;20426;-79
2021/01/25 03:51:42;;;;;;;;;;;;;;;1.52;68.37;98171.59;3131232;28;20480;-78
2021/01/25 03:53:13;;;;;;;;;;;;;;;1.56;68.71;98172.97;3127507;28;19939;-78
2021/01/25 03:54:44;;;;;;;;;;;;;;;1.62;68.62;98173.44;3129824;28;19939;-78
2021/01/25 03:56:15;;;;;;;;;;;;;;;1.58;68.95;98172.88;3131413;28;19925;-79
2021/01/25 03:57:47;;;;;;;;;;;;;;;1.56;69.04;98174.78;3135158;28;19948;-78
2021/01/25 03:59:18;;;;;;;;;;;;;;;1.54;69.36;98174.09;3129679;28;20003;-78
2021/01/25 04:00:50;;;;;;;;;;;;;;;1.52;69.41;98171.59;3128541;28;19979;-78
2021/01/25 04:02:21;;;;;;;;;;;;;;;1.49;69.92;98179.75;3131966;28;20345;-78
2021/01/25 04:03:52;;;;;;;;;;;;;;;1.47;70.34;98179.03;3135576;28;19983;-78
2021/01/25 04:05:23;;;;;;;;;;;;;;;1.48;70.57;98178.06;3131321;28;19976;-78
2021/01/25 04:06:54;;;;;;;;;;;;;;;1.46;70.40;98180.03;3127498;28;19951;-79
2021/01/25 04:08:25;;;;;;;;;;;;;;;1.49;70.36;98181.56;3129176;28;19928;-77
2021/01/25 04:09:56;;;;;;;;;;;;;;;1.39;70.94;98174.44;3129854;28;19986;-78
2021/01/25 04:11:27;;;;;;;;;;;;;;;1.36;71.29;98189.69;3131824;28;19959;-78
2021/01/25 04:12:58;;;;;;;;;;;;;;;1.38;72.02;98193.00;3139705;28;19956;-78
2021/01/25 04:14:29;;;;;;;;;;;;;;;1.42;71.89;98194.41;3132962;28;19929;-78
2021/01/25 04:16:00;;;;;;;;;;;;;;;1.41;72.11;98192.75;3132346;28;19967;-78
2021/01/25 04:17:31;;;;;;;;;;;;;;;1.44;72.22;98194.28;3126533;28;19928;-78
2021/01/25 04:19:03;;;;;;;;;;;;;;;1.50;70.80;98197.22;3132885;28;19943;-78
2021/01/25 04:20:33;;;;;;;;;;;;;;;1.51;71.29;98192.81;3134468;28;19943;-78
2021/01/25 04:22:04;;;;;;;;;;;;;;;1.52;71.56;98194.44;3134016;28;19951;-77
2021/01/25 04:23:35;;;;;;;;;;;;;;;1.53;71.71;98201.38;3131799;28;19943;-79
2021/01/25 04:25:06;;;;;;;;;;;;;;;1.52;71.62;98190.03;3134274;28;19924;-76
2021/01/25 04:26:41;;;;;;;;;;;;;;;1.46;71.86;98198.47;3131916;28;19929;-78
2021/01/25 04:28:12;;;;;;;;;;;;;;;1.40;71.89;98197.19;3134211;28;19943;-78
2021/01/25 04:29:43;;;;;;;;;;;;;;;1.28;72.63;98192.97;3130629;28;19932;-78
2021/01/25 04:31:15;;;;;;;;;;;;;;;1.19;73.61;98199.03;3128793;28;19925;-78
2021/01/25 04:32:46;;;;;;;;;;;;;;;1.24;73.28;98195.03;3129638;28;19924;-77
2021/01/25 04:34:17;;;;;;;;;;;;;;;1.23;73.86;98200.41;3131400;28;20405;-79
2021/01/25 04:35:48;;;;;;;;;;;;;;;1.27;74.02;98201.00;3134219;28;19924;-78
2021/01/25 04:37:20;;;;;;;;;;;;;;;1.32;74.06;98197.03;3131207;28;19928;-78
2021/01/25 04:38:51;;;;;;;;;;;;;;;1.26;74.82;98194.88;3130904;28;19979;-78
2021/01/25 04:40:22;;;;;;;;;;;;;;;1.27;74.85;98191.28;3129699;28;19928;-78
2021/01/25 04:41:53;;;;;;;;;;;;;;;1.12;75.81;98192.63;3129978;28;19982;-79
2021/01/25 04:43:26;;;;;;;;;;;;;;;1.02;75.45;98198.66;3133425;28;20379;-77
2021/01/25 04:44:58;;;;;;;;;;;;;;;0.99;75.84;98201.53;3131456;28;19928;-78
2021/01/25 04:46:32;;;;;;;;;;;;;;;0.93;76.48;98199.44;3131794;28;20355;-78
2021/01/25 04:48:04;;;;;;;;;;;;;;;0.87;76.72;98199.91;3131170;28;21111;-79
2021/01/25 04:49:36;;;;;;;;;;;;;;;0.81;76.80;98208.34;3128981;28;19925;-77
2021/01/25 04:51:08;;;;;;;;;;;;;;;0.88;77.17;98204.22;3132599;28;19983;-78
2021/01/25 04:52:39;;;;;;;;;;;;;;;0.80;77.40;98202.25;3132507;28;19929;-78
2021/01/25 04:54:10;;;;;;;;;;;;;;;0.75;77.70;98205.28;3130489;28;19932;-78
2021/01/25 04:55:42;;;;;;;;;;;;;;;0.72;77.96;98205.50;3127375;28;19932;-77
2021/01/25 04:57:14;;;;;;;;;;;;;;;0.80;77.92;98202.25;3130993;28;19948;-78
2021/01/25 04:58:45;;;;;;;;;;;;;;;0.72;78.13;98202.03;3130435;28;20016;-78
2021/01/25 05:00:17;;;;;;;;;;;;;;;0.66;78.32;98203.41;3132785;28;19928;-79
2021/01/25 05:01:51;;;;;;;;;;;;;;;0.66;78.73;98208.66;3131471;28;19932;-79
2021/01/25 05:03:26;;;;;;;;;;;;;;;0.73;79.15;98199.28;3127588;28;19972;-80
2021/01/25 05:05:15;;;;;;;;;;;;;;;0.77;78.92;98208.59;3128842;28;19929;-79
2021/01/25 05:07:07;;;;;;;;;;;;;;;0.70;79.18;98204.81;3127605;28;20338;-76
2021/01/25 05:08:48;;;;;;;;;;;;;;;0.65;79.03;98207.00;3128573;28;19929;-77
2021/01/25 05:10:23;;;;;;;;;;;;;;;0.65;79.28;98211.41;3129447;28;20044;-78
2021/01/25 05:11:58;;;;;;;;;;;;;;;0.66;78.98;98203.41;3131682;28;19982;-79
2021/01/25 05:13:29;;;;;;;;;;;;;;;0.65;79.10;98212.25;3129255;28;20016;-79
2021/01/25 05:14:59;;;;;;;;;;;;;;;0.62;79.32;98199.34;3136451;28;19978;-78
2021/01/25 05:16:31;;;;;;;;;;;;;;;0.58;79.38;98204.03;3132223;28;19924;-78
2021/01/25 05:18:04;;;;;;;;;;;;;;;0.69;79.59;98208.38;3134253;28;19974;-78
2021/01/25 05:19:35;;;;;;;;;;;;;;;0.75;78.75;98207.03;3131281;28;19925;-78
2021/01/25 05:21:06;;;;;;;;;;;;;;;0.80;78.98;98204.03;3131721;28;19929;-78
2021/01/25 05:22:37;;;;;;;;;;;;;;;0.85;78.63;98204.50;3133729;28;19924;-78
2021/01/25 05:24:10;;;;;;;;;;;;;;;0.89;77.86;98200.63;3134681;28;19932;-79
2021/01/25 05:25:42;;;;;;;;;;;;;;;0.89;78.05;98198.00;3133939;28;19924;-78
2021/01/25 05:27:21;;;;;;;;;;;;;;;0.92;78.06;98197.75;3133243;28;19933;-79
2021/01/25 05:28:52;;;;;;;;;;;;;;;0.92;77.93;98195.94;3130446;28;20027;-79
2021/01/25 05:30:24;;;;;;;;;;;;;;;0.93;77.93;98209.94;3137605;28;19929;-79
2021/01/25 05:31:56;;;;;;;;;;;;;;;0.94;78.38;98214.25;3134546;28;19924;-79
2021/01/25 05:33:28;;;;;;;;;;;;;;;0.97;78.46;98206.09;3135247;28;19924;-79
2021/01/25 05:35:02;;;;;;;;;;;;;;;0.95;78.66;98209.81;3134064;28;19924;-79
2021/01/25 05:36:33;;;;;;;;;;;;;;;0.95;78.98;98208.00;3146250;28;19947;-78
2021/01/25 05:38:05;;;;;;;;;;;;;;;0.96;78.94;98214.94;3141219;28;19925;-77
2021/01/25 05:39:36;;;;;;;;;;;;;;;0.96;78.71;98203.59;3136845;28;20045;-79
2021/01/25 05:41:08;;;;;;;;;;;;;;;0.92;79.04;98205.66;3135447;28;19925;-79
2021/01/25 05:42:41;;;;;;;;;;;;;;;0.86;79.35;98211.41;3133341;28;19925;-79
2021/01/25 05:44:15;;;;;;;;;;;;;;;0.83;79.43;98209.06;3133151;28;19929;-79
2021/01/25 05:45:47;;;;;;;;;;;;;;;0.86;79.63;98211.41;3135004;28;19924;-78
2021/01/25 05:47:18;;;;;;;;;;;;;;;0.84;79.57;98221.25;3137903;28;20305;-79
2021/01/25 05:48:59;;;;;;;;;;;;;;;0.76;79.71;98204.28;3139799;28;19971;-79
2021/01/25 05:50:32;;;;;;;;;;;;;;;0.81;79.68;98210.97;3131296;28;20012;-81
2021/01/25 05:52:04;;;;;;;;;;;;;;;0.84;79.82;98210.72;3137095;28;19970;-78
2021/01/25 05:53:37;;;;;;;;;;;;;;;0.84;80.13;98215.97;3134924;28;20395;-77
2021/01/25 05:55:08;;;;;;;;;;;;;;;0.82;80.13;98217.91;3135846;28;19925;-79
2021/01/25 05:56:39;;;;;;;;;;;;;;;0.80;79.66;98217.19;3132948;28;19986;-79
2021/01/25 05:58:10;;;;;;;;;;;;;;;0.78;80.12;98207.63;3133578;28;20518;-77
2021/01/25 05:59:42;;;;;;;;;;;;;;;0.76;79.91;98211.34;3131804;28;19925;-77
2021/01/25 06:01:13;;;;;;;;;;;;;;;0.78;79.98;98214.69;3130484;28;19928;-79
2021/01/25 06:02:47;;;;;;;;;;;;;;;0.76;80.44;98214.81;3134937;28;19939;-79
2021/01/25 06:04:20;;;;;;;;;;;;;;;0.84;79.76;98218.63;3134886;28;19925;-79
2021/01/25 06:05:52;;;;;;;;;;;;;;;0.82;79.43;98217.91;3136182;28;20020;-79
2021/01/25 06:07:23;;;;;;;;;;;;;;;0.83;79.82;98216.94;3134711;28;19956;-78
2021/01/25 06:09:00;;;;;;;;;;;;;;;0.77;80.37;98227.00;3135899;28;19932;-78
2021/01/25 06:10:33;;;;;;;;;;;;;;;0.76;80.25;98220.06;3147997;28;19913;-75
2021/01/25 06:12:05;;;;;;;;;;;;;;;0.72;80.75;98223.94;3148265;28;19978;-74
2021/01/25 06:13:39;;;;;;;;;;;;;;;0.74;80.25;98226.41;3136682;28;19913;-77
2021/01/25 06:15:14;;;;;;;;;;;;;;;0.77;80.02;98223.53;3125619;28;19925;-78
2021/01/25 06:16:48;;;;;;;;;;;;;;;0.78;80.30;98227.84;3089441;28;20350;-79
2021/01/25 06:18:22;;;;;;;;;;;;;;;0.83;80.13;98230.09;3102000;28;20041;-77
2021/01/25 06:19:54;;;;;;;;;;;;;;;0.81;80.15;98232.84;3132350;28;20386;-79
2021/01/25 06:21:26;;;;;;;;;;;;;;;0.81;80.37;98229.38;3136177;28;19964;-79
2021/01/25 06:22:57;;;;;;;;;;;;;;;0.80;80.16;98223.31;3131863;28;19932;-79
2021/01/25 06:24:30;;;;;;;;;;;;;;;0.78;80.41;98230.47;3137132;28;19925;-78
2021/01/25 06:26:01;;;;;;;;;;;;;;;0.84;79.92;98237.84;3128844;28;19960;-79
2021/01/25 06:27:32;;;;;;;;;;;;;;;0.75;80.44;98242.09;3136410;28;19978;-79
2021/01/25 06:29:04;;;;;;;;;;;;;;;0.75;80.76;98244.72;3133255;28;19925;-79
2021/01/25 06:30:35;;;;;;;;;;;;;;;0.78;80.52;98238.38;3132802;28;20025;-79
2021/01/25 06:32:09;;;;;;;;;;;;;;;0.75;80.61;98238.63;3132476;28;20058;-78
2021/01/25 06:33:40;;;;;;;;;;;;;;;0.74;81.02;98236.94;3133747;28;19972;-78
2021/01/25 06:35:16;;;;;;;;;;;;;;;0.69;80.22;98242.59;3132967;28;19979;-79
2021/01/25 06:36:50;;;;;;;;;;;;;;;0.74;80.70;98236.94;3135920;28;19928;-77
2021/01/25 06:38:21;;;;;;;;;;;;;;;0.83;80.18;98240.63;3134823;28;20414;-77
2021/01/25 06:39:52;;;;;;;;;;;;;;;0.80;80.51;98239.09;3132176;28;19925;-78
2021/01/25 06:41:23;;;;;;;;;;;;;;;0.80;80.47;98243.50;3131880;28;19984;-78
2021/01/25 06:42:54;;;;;;;;;;;;;;;0.80;80.24;98246.97;3137952;28;19971;-79
2021/01/25 06:44:25;;;;;;;;;;;;;;;0.85;80.08;98247.41;3139694;28;19929;-78
2021/01/25 06:45:58;;;;;;;;;;;;;;;0.85;80.35;98249.22;3144965;28;19936;-79
2021/01/25 06:47:30;;;;;;;;;;;;;;;0.84;80.21;98255.44;3140174;28;19924;-79
2021/01/25 06:49:01;;;;;;;;;;;;;;;0.85;79.96;98247.41;3139546;28;19932;-76
2021/01/25 06:50:33;;;;;;;;;;;;;;;0.84;80.19;98253.63;3139610;28;19933;-78
2021/01/25 06:52:09;;;;;;;;;;;;;;;0.88;79.51;98257.69;3143081;28;19932;-76
2021/01/25 06:53:41;;;;;;;;;;;;;;;0.95;79.40;98250.09;3146343;28;19924;-76
2021/01/25 06:55:11;;;;;;;;;;;;;;;0.94;79.63;98256.34;3144056;28;19932;-77
2021/01/25 06:56:43;;;;;;;;;;;;;;;0.96;79.36;98259.69;3143229;28;19947;-76
2021/01/25 06:58:14;;;;;;;;;;;;;;;0.95;79.83;98255.38;3143606;28;19928;-79
2021/01/25 06:59:48;;;;;;;;;;;;;;;1.00;78.86;98262.88;3147360;28;19913;-77
2021/01/25 07:01:21;;;;;;;;;;;;;;;0.99;79.57;98253.34;3144136;28;19971;-77
2021/01/25 07:02:53;;;;;;;;;;;;;;;1.05;79.25;98263.34;3142513;28;19933;-76
2021/01/25 07:04:39;;;;;;;;;;;;;;;0.97;79.49;98269.25;3146411;28;19924;-78
2021/01/25 07:08:27;;;;;;;;;;;;;;;0.89;80.17;98272.53;3140859;28;19955;-77
2021/01/25 07:09:58;;;;;;;;;;;;;;;0.89;80.10;98277.78;3144193;28;19974;-77
2021/01/25 07:11:30;;;;;;;;;;;;;;;0.89;80.45;98279.56;3141491;28;19939;-78
2021/01/25 07:13:01;;;;;;;;;;;;;;;0.88;80.42;98284.00;3142190;28;19932;-79
2021/01/25 07:14:32;;;;;;;;;;;;;;;0.85;80.59;98286.06;3133641;28;20011;-78
2021/01/25 07:16:04;;;;;;;;;;;;;;;0.89;80.62;98295.34;3136074;28;19979;-79
2021/01/25 07:17:35;;;;;;;;;;;;;;;0.85;80.18;98299.22;3133217;28;19933;-79
2021/01/25 07:19:06;;;;;;;;;;;;;;;0.81;80.73;98297.78;3134037;28;19964;-78
2021/01/25 07:20:37;;;;;;;;;;;;;;;0.80;80.84;98306.63;3131933;28;19924;-78
2021/01/25 07:22:09;;;;;;;;;;;;;;;0.75;80.71;98305.22;3133670;28;19932;-79
2021/01/25 07:23:41;;;;;;;;;;;;;;;0.72;80.97;98312.50;3133321;28;19929;-79
2021/01/25 07:25:12;;;;;;;;;;;;;;;0.65;81.53;98317.47;3135122;28;20303;-78
2021/01/25 07:26:44;;;;;;;;;;;;;;;0.67;81.25;98309.44;3132012;28;19924;-80
2021/01/25 07:28:15;;;;;;;;;;;;;;;0.71;81.45;98316.13;3131420;28;20389;-79
2021/01/25 07:29:46;;;;;;;;;;;;;;;0.69;81.28;98318.88;3135094;28;19963;-79
2021/01/25 07:31:17;;;;;;;;;;;;;;;0.77;81.17;98315.63;3133535;28;20013;-79
2021/01/25 07:32:49;;;;;;;;;;;;;;;0.78;81.05;98317.28;3136191;28;19925;-79
2021/01/25 07:34:20;;;;;;;;;;;;;;;0.72;81.02;98320.41;3133932;28;19925;-79
2021/01/25 07:35:51;;;;;;;;;;;;;;;0.72;81.11;98329.16;3136241;28;19948;-80
2021/01/25 07:37:23;;;;;;;;;;;;;;;0.75;81.11;98326.28;3137627;28;19931;-79
2021/01/25 07:38:54;;;;;;;;;;;;;;;0.77;80.95;98331.41;3134145;28;19994;-80
2021/01/25 07:40:24;;;;;;;;;;;;;;;0.76;81.00;98325.28;3132009;28;20294;-80
2021/01/25 07:41:56;;;;;;;;;;;;;;;0.74;80.88;98340.38;3133500;28;19933;-79
2021/01/25 07:43:27;;;;;;;;;;;;;;;0.82;80.85;98336.28;3130166;28;19932;-79
2021/01/25 07:44:59;;;;;;;;;;;;;;;0.82;80.59;98338.94;3131660;28;19945;-78
2021/01/25 07:46:30;;;;;;;;;;;;;;;0.84;80.93;98347.53;3133540;28;19924;-78
2021/01/25 07:48:01;;;;;;;;;;;;;;;0.86;81.13;98346.44;3136146;28;20272;-78
2021/01/25 07:49:31;;;;;;;;;;;;;;;0.86;80.97;98349.06;3136282;28;19968;-80
2021/01/25 07:51:02;;;;;;;;;;;;;;;0.86;80.84;98337.69;3138762;28;19929;-80
2021/01/25 07:52:34;;;;;;;;;;;;;;;0.97;81.02;98344.72;3133905;28;19940;-79
2021/01/25 07:54:06;;;;;;;;;;;;;;;1.07;80.26;98343.03;3133058;28;20013;-80
2021/01/25 07:55:38;;;;;;;;;;;;;;;1.13;79.71;98355.66;3142427;28;19963;-79
2021/01/25 07:57:13;;;;;;;;;;;;;;;1.15;79.10;98345.00;3142701;28;19929;-79
2021/01/25 07:58:45;;;;;;;;;;;;;;;1.20;79.11;98348.09;3136649;28;19947;-79
2021/01/25 08:00:16;;;;;;;;;;;;;;;1.23;78.66;98351.31;3133867;28;19936;-79
2021/01/25 08:01:49;;;;;;;;;;;;;;;1.27;78.28;98341.38;3131828;28;19929;-79
2021/01/25 08:03:22;;;;;;;;;;;;;;;1.27;78.14;98351.91;3136790;28;19993;-79
2021/01/25 08:04:54;;;;;;;;;;;;;;;1.29;78.26;98347.34;3132978;28;19929;-79
2021/01/25 08:06:26;;;;;;;;;;;;;;;1.29;78.65;98352.63;3131056;28;19947;-76
2021/01/25 08:07:58;;;;;;;;;;;;;;;1.32;78.97;98347.09;3131450;28;20326;-79